Meteo Giornale » Osservazioni meteo Stati Uniti (USA) » Hyannis Barnstable-Boardman
ore: 03:56 - Osservazioni Meteo Hyannis Barnstable-Boardman
Lat. 41° 40' N Lon. 70° 16' W Alt. 15 metri s.l.m.
17 °C
Sereno
Temp. 24 Ore
17 °C
23 °C
Nord
0 Km/h
Dew point 15 °C
Umidità 88 %
Visibilità 11 Km
Il sole sorge alle ore 06:07
Il sole tramonta alle ore 19:14
| Data e Ora | Cielo e Fenomeni | T °C | DP °C | Um. % | Pres. hPa | Vis. km | Vento km/h | |
|---|---|---|---|---|---|---|---|---|
| Oggi h: 03:56 | Sereno | 17 | 15 | 88 | 1017 | 11 | N 0 | |
| Oggi h: 02:56 | Molto Nuvoloso | 20 | 13 | 64 | 1018 | 10 | N 5.5 | |
| Oggi h: 01:56 | Nuvoloso | 19 | 14 | 72 | 1018 | 10 | S/SO 9.3 | |
| Oggi h: 00:56 | Nuvoloso | 19 | 15 | 77 | 1018 | 10 | S/SO 9.3 | |
| Ieri h: 23:56 | Sereno | 20 | 14 | 68 | 1018 | 10 | S/SO 9.3 | |
| Ieri h: 22:56 | Sereno | 19 | 14 | 72 | 1018 | 10 | S 7.4 | |
| Ieri h: 21:56 | Poco Nuvoloso | 19 | 15 | 77 | 1018 | 10 | S 9.3 | |
| Ieri h: 20:56 | Poco Nuvoloso | 19 | 14 | 72 | 1019 | 10 | N 7.4 | |
| Ieri h: 19:56 | Sereno | 18 | 14 | 77 | 1019 | 10 | N 5.5 | |
| Ieri h: 18:56 | Sereno | 19 | 15 | 77 | 1019 | 10 | N 5.5 | |
| Ieri h: 17:56 | Sereno | 20 | 14 | 68 | 1019 | 10 | SE 9.3 | |
| Ieri h: 16:56 | Sereno | 21 | 13 | 60 | 1019 | 10 | N 5.5 | |
| Ieri h: 15:56 | Sereno | 22 | 13 | 56 | 1019 | 10 | N 0 | |
| Ieri h: 14:56 | Sereno | 21 | 13 | 60 | 1019 | 10 | N 9.3 | |
| Ieri h: 13:56 | Sereno | 23 | 13 | 53 | 1019 | 10 | N 13 | |
| Ieri h: 12:56 | Sereno | 21 | 14 | 64 | 1020 | 10 | N/NO 13 | |
| Ieri h: 11:56 | Sereno | 22 | 14 | 60 | 1020 | 10 | N 11.1 | |
| Ieri h: 10:56 | Sereno | 22 | 15 | 64 | 1020 | 10 | NE 13 | |
| Ieri h: 09:56 | Sereno | 22 | 16 | 68 | 1019 | 10 | NE 13 | |
| Ieri h: 08:56 | Sereno | 20 | 16 | 77 | 1019 | 10 | N/NE 11.1 | |
| Ieri h: 07:56 | Sereno | 19 | 16 | 82 | 1019 | 10 | NE 13 | |
| Ieri h: 06:56 | Sereno | 18 | 15 | 82 | 1019 | 10 | N 5.5 | |
| Ieri h: 05:56 | Sereno | 18 | 16 | 88 | 1018 | 10 | N/NE 11.1 | |
| Ieri h: 04:56 | Sereno | 19 | 18 | 93 | 1017 | 10 | N 9.3 | |



